Wootton, United Kingdom
Current Conditions -  °F | °C
As of 4:50 AM on Saturday 22 Nov 2014 (Local Time) from EGGW Reporting Station
Drizzle Drizzle  
Wind Chill: 10°   Ceiling: 200
Heat Index: 10°   Visibility: 0.87mi
Dew Point: 10°   Wind: 6mph
Humidity: 100%   Direction: 160°SSE
Pressure: 29.85"   Gusts: NA
Location:  52.1°N, 0.53°W
Report Text: EGGW 220450Z 16005KT 1400 R08/P1500 -DZ BR OVC002 10/10 Q1011
Loading
Personal Weather Stations






























Interactive Weather Map New forecast layout! Learn more

10-Day Weather Forecast

Advertisements
Track Severe Weather on mobile